sensor_id;sensor_type;location;lat;lon;timestamp;P1;durP1;ratioP1;P2;durP2;ratioP2
48588;SDS011;34369;51.174;6.738;2022-07-29T00:00:48;15.68;;;14.02;;
48588;SDS011;34369;51.174;6.738;2022-07-29T00:03:24;16.00;;;14.40;;
48588;SDS011;34369;51.174;6.738;2022-07-29T00:05:56;15.88;;;14.27;;
48588;SDS011;34369;51.174;6.738;2022-07-29T00:08:29;15.43;;;14.02;;
48588;SDS011;34369;51.174;6.738;2022-07-29T00:11:03;16.02;;;14.27;;
48588;SDS011;34369;51.174;6.738;2022-07-29T00:13:35;15.40;;;13.80;;
48588;SDS011;34369;51.174;6.738;2022-07-29T00:16:07;15.68;;;14.25;;
48588;SDS011;34369;51.174;6.738;2022-07-29T00:18:39;15.55;;;13.90;;
48588;SDS011;34369;51.174;6.738;2022-07-29T00:21:11;15.77;;;14.27;;
48588;SDS011;34369;51.174;6.738;2022-07-29T00:23:43;14.88;;;13.48;;
48588;SDS011;34369;51.174;6.738;2022-07-29T00:26:17;15.02;;;13.43;;
48588;SDS011;34369;51.174;6.738;2022-07-29T00:28:49;15.18;;;13.57;;
48588;SDS011;34369;51.174;6.738;2022-07-29T00:31:21;15.20;;;13.80;;
48588;SDS011;34369;51.174;6.738;2022-07-29T00:33:53;15.02;;;13.57;;
48588;SDS011;34369;51.174;6.738;2022-07-29T00:36:25;15.40;;;14.00;;
48588;SDS011;34369;51.174;6.738;2022-07-29T00:38:56;14.80;;;13.40;;
48588;SDS011;34369;51.174;6.738;2022-07-29T00:41:29;15.63;;;13.90;;
48588;SDS011;34369;51.174;6.738;2022-07-29T00:44:01;16.30;;;13.85;;
48588;SDS011;34369;51.174;6.738;2022-07-29T00:46:36;15.35;;;13.77;;
48588;SDS011;34369;51.174;6.738;2022-07-29T00:49:08;14.95;;;13.45;;
48588;SDS011;34369;51.174;6.738;2022-07-29T00:51:40;15.25;;;13.80;;
48588;SDS011;34369;51.174;6.738;2022-07-29T00:54:12;15.15;;;13.65;;
48588;SDS011;34369;51.174;6.738;2022-07-29T00:56:45;15.05;;;13.60;;
48588;SDS011;34369;51.174;6.738;2022-07-29T00:59:17;15.38;;;13.88;;
48588;SDS011;34369;51.174;6.738;2022-07-29T01:01:49;15.15;;;13.70;;
48588;SDS011;34369;51.174;6.738;2022-07-29T01:04:21;16.20;;;14.50;;
48588;SDS011;34369;51.174;6.738;2022-07-29T01:06:54;15.57;;;14.00;;
48588;SDS011;34369;51.174;6.738;2022-07-29T01:09:26;15.32;;;13.93;;
48588;SDS011;34369;51.174;6.738;2022-07-29T01:12:00;15.70;;;13.98;;
48588;SDS011;34369;51.174;6.738;2022-07-29T01:14:34;15.98;;;13.80;;
48588;SDS011;34369;51.174;6.738;2022-07-29T01:17:09;15.13;;;13.65;;
48588;SDS011;34369;51.174;6.738;2022-07-29T01:19:48;15.45;;;14.05;;
48588;SDS011;34369;51.174;6.738;2022-07-29T01:22:26;15.38;;;13.77;;
48588;SDS011;34369;51.174;6.738;2022-07-29T01:25:26;15.32;;;13.73;;
48588;SDS011;34369;51.174;6.738;2022-07-29T01:31:20;14.70;;;13.30;;
48588;SDS011;34369;51.174;6.738;2022-07-29T01:34:00;16.65;;;13.93;;
48588;SDS011;34369;51.174;6.738;2022-07-29T01:36:37;15.45;;;13.98;;
48588;SDS011;34369;51.174;6.738;2022-07-29T01:39:18;15.27;;;13.88;;
48588;SDS011;34369;51.174;6.738;2022-07-29T01:41:56;15.43;;;13.82;;
48588;SDS011;34369;51.174;6.738;2022-07-29T01:44:37;15.32;;;13.82;;
48588;SDS011;34369;51.174;6.738;2022-07-29T01:47:17;15.55;;;14.15;;
48588;SDS011;34369;51.174;6.738;2022-07-29T01:49:54;15.65;;;14.18;;
48588;SDS011;34369;51.174;6.738;2022-07-29T01:55:07;15.30;;;13.90;;
48588;SDS011;34369;51.174;6.738;2022-07-29T01:57:46;15.65;;;14.10;;
48588;SDS011;34369;51.174;6.738;2022-07-29T02:00:21;16.40;;;14.80;;
48588;SDS011;34369;51.174;6.738;2022-07-29T02:02:54;16.25;;;14.65;;
48588;SDS011;34369;51.174;6.738;2022-07-29T02:08:04;15.52;;;14.10;;
48588;SDS011;34369;51.174;6.738;2022-07-29T02:10:37;15.45;;;13.95;;
48588;SDS011;34369;51.174;6.738;2022-07-29T02:13:11;16.05;;;14.45;;
48588;SDS011;34369;51.174;6.738;2022-07-29T02:15:47;15.63;;;14.23;;
48588;SDS011;34369;51.174;6.738;2022-07-29T02:18:22;14.90;;;13.40;;
48588;SDS011;34369;51.174;6.738;2022-07-29T02:20:56;16.58;;;14.68;;
48588;SDS011;34369;51.174;6.738;2022-07-29T02:23:32;15.88;;;14.27;;
48588;SDS011;34369;51.174;6.738;2022-07-29T02:26:06;16.02;;;14.63;;
48588;SDS011;34369;51.174;6.738;2022-07-29T02:28:40;15.63;;;14.13;;
48588;SDS011;34369;51.174;6.738;2022-07-29T02:31:14;17.98;;;15.05;;
48588;SDS011;34369;51.174;6.738;2022-07-29T02:33:48;15.25;;;13.77;;
48588;SDS011;34369;51.174;6.738;2022-07-29T02:36:22;16.35;;;14.75;;
48588;SDS011;34369;51.174;6.738;2022-07-29T02:38:55;16.10;;;14.50;;
48588;SDS011;34369;51.174;6.738;2022-07-29T02:41:30;15.50;;;14.03;;
48588;SDS011;34369;51.174;6.738;2022-07-29T02:44:11;17.00;;;14.68;;
48588;SDS011;34369;51.174;6.738;2022-07-29T02:46:47;16.85;;;15.05;;
48588;SDS011;34369;51.174;6.738;2022-07-29T02:49:27;16.08;;;14.57;;
48588;SDS011;34369;51.174;6.738;2022-07-29T02:52:08;17.23;;;14.77;;
48588;SDS011;34369;51.174;6.738;2022-07-29T02:54:55;15.98;;;14.48;;
48588;SDS011;34369;51.174;6.738;2022-07-29T02:57:32;15.75;;;14.13;;
48588;SDS011;34369;51.174;6.738;2022-07-29T03:00:08;15.90;;;14.40;;
48588;SDS011;34369;51.174;6.738;2022-07-29T03:02:44;17.08;;;14.55;;
48588;SDS011;34369;51.174;6.738;2022-07-29T03:05:24;15.35;;;13.85;;
48588;SDS011;34369;51.174;6.738;2022-07-29T03:07:58;15.88;;;14.02;;
48588;SDS011;34369;51.174;6.738;2022-07-29T03:10:34;16.20;;;14.40;;
48588;SDS011;34369;51.174;6.738;2022-07-29T03:13:09;15.23;;;13.80;;
48588;SDS011;34369;51.174;6.738;2022-07-29T03:15:42;16.80;;;14.85;;
48588;SDS011;34369;51.174;6.738;2022-07-29T03:18:16;19.23;;;14.25;;
48588;SDS011;34369;51.174;6.738;2022-07-29T03:20:49;16.45;;;14.90;;
48588;SDS011;34369;51.174;6.738;2022-07-29T03:23:22;15.98;;;13.85;;
48588;SDS011;34369;51.174;6.738;2022-07-29T03:25:56;15.93;;;14.40;;
48588;SDS011;34369;51.174;6.738;2022-07-29T03:28:28;15.52;;;14.13;;
48588;SDS011;34369;51.174;6.738;2022-07-29T03:31:01;16.58;;;14.95;;
48588;SDS011;34369;51.174;6.738;2022-07-29T03:33:34;17.70;;;14.93;;
48588;SDS011;34369;51.174;6.738;2022-07-29T03:36:06;19.45;;;15.07;;
48588;SDS011;34369;51.174;6.738;2022-07-29T03:38:38;16.38;;;14.80;;
48588;SDS011;34369;51.174;6.738;2022-07-29T03:41:13;17.20;;;15.55;;
48588;SDS011;34369;51.174;6.738;2022-07-29T03:43:47;16.38;;;14.95;;
48588;SDS011;34369;51.174;6.738;2022-07-29T03:46:22;16.27;;;14.32;;
48588;SDS011;34369;51.174;6.738;2022-07-29T03:49:00;16.23;;;14.60;;
48588;SDS011;34369;51.174;6.738;2022-07-29T03:54:06;16.25;;;14.50;;
48588;SDS011;34369;51.174;6.738;2022-07-29T03:56:41;16.70;;;15.15;;
48588;SDS011;34369;51.174;6.738;2022-07-29T03:59:17;17.13;;;15.40;;
48588;SDS011;34369;51.174;6.738;2022-07-29T04:01:53;16.40;;;14.90;;
48588;SDS011;34369;51.174;6.738;2022-07-29T04:04:28;16.58;;;15.07;;
48588;SDS011;34369;51.174;6.738;2022-07-29T04:07:03;16.40;;;15.00;;
48588;SDS011;34369;51.174;6.738;2022-07-29T04:09:36;17.60;;;16.00;;
48588;SDS011;34369;51.174;6.738;2022-07-29T04:12:09;17.10;;;15.57;;
48588;SDS011;34369;51.174;6.738;2022-07-29T04:14:41;17.67;;;15.98;;
48588;SDS011;34369;51.174;6.738;2022-07-29T04:17:14;16.98;;;15.27;;
48588;SDS011;34369;51.174;6.738;2022-07-29T04:19:50;17.17;;;15.65;;
48588;SDS011;34369;51.174;6.738;2022-07-29T04:22:25;17.25;;;15.65;;
48588;SDS011;34369;51.174;6.738;2022-07-29T04:25:00;17.17;;;15.68;;
48588;SDS011;34369;51.174;6.738;2022-07-29T04:27:33;17.15;;;15.65;;
48588;SDS011;34369;51.174;6.738;2022-07-29T04:30:27;17.15;;;15.65;;
48588;SDS011;34369;51.174;6.738;2022-07-29T04:33:04;17.33;;;15.73;;
48588;SDS011;34369;51.174;6.738;2022-07-29T04:35:42;17.48;;;15.88;;
48588;SDS011;34369;51.174;6.738;2022-07-29T04:38:16;17.80;;;16.20;;
48588;SDS011;34369;51.174;6.738;2022-07-29T04:40:52;18.42;;;16.58;;
48588;SDS011;34369;51.174;6.738;2022-07-29T04:43:26;18.92;;;17.13;;
48588;SDS011;34369;51.174;6.738;2022-07-29T04:46:02;19.77;;;17.70;;
48588;SDS011;34369;51.174;6.738;2022-07-29T04:48:38;19.67;;;17.75;;
48588;SDS011;34369;51.174;6.738;2022-07-29T04:51:15;19.42;;;17.48;;
48588;SDS011;34369;51.174;6.738;2022-07-29T04:56:20;20.08;;;18.33;;
48588;SDS011;34369;51.174;6.738;2022-07-29T04:58:54;19.13;;;17.23;;
48588;SDS011;34369;51.174;6.738;2022-07-29T05:01:26;18.98;;;17.23;;
48588;SDS011;34369;51.174;6.738;2022-07-29T05:03:59;19.02;;;17.33;;
48588;SDS011;34369;51.174;6.738;2022-07-29T05:06:33;18.77;;;17.00;;
48588;SDS011;34369;51.174;6.738;2022-07-29T05:09:06;18.13;;;16.23;;
48588;SDS011;34369;51.174;6.738;2022-07-29T05:11:39;18.58;;;16.80;;
48588;SDS011;34369;51.174;6.738;2022-07-29T05:14:11;17.70;;;16.10;;
48588;SDS011;34369;51.174;6.738;2022-07-29T05:16:44;18.75;;;16.90;;
48588;SDS011;34369;51.174;6.738;2022-07-29T05:19:17;18.35;;;16.75;;
48588;SDS011;34369;51.174;6.738;2022-07-29T05:21:50;17.58;;;15.98;;
48588;SDS011;34369;51.174;6.738;2022-07-29T05:24:23;18.10;;;16.52;;
48588;SDS011;34369;51.174;6.738;2022-07-29T05:26:56;18.60;;;16.90;;
48588;SDS011;34369;51.174;6.738;2022-07-29T05:29:29;17.95;;;16.38;;
48588;SDS011;34369;51.174;6.738;2022-07-29T05:32:03;18.40;;;16.75;;
48588;SDS011;34369;51.174;6.738;2022-07-29T05:34:38;18.48;;;16.65;;
48588;SDS011;34369;51.174;6.738;2022-07-29T05:37:14;18.10;;;16.40;;
48588;SDS011;34369;51.174;6.738;2022-07-29T05:39:48;17.27;;;15.77;;
48588;SDS011;34369;51.174;6.738;2022-07-29T05:42:23;18.05;;;16.33;;
48588;SDS011;34369;51.174;6.738;2022-07-29T05:44:57;17.50;;;15.90;;
48588;SDS011;34369;51.174;6.738;2022-07-29T05:47:30;17.63;;;15.85;;
48588;SDS011;34369;51.174;6.738;2022-07-29T05:50:03;17.25;;;15.63;;
48588;SDS011;34369;51.174;6.738;2022-07-29T05:52:40;17.80;;;16.17;;
48588;SDS011;34369;51.174;6.738;2022-07-29T05:55:15;17.27;;;15.52;;
48588;SDS011;34369;51.174;6.738;2022-07-29T05:57:51;17.40;;;15.80;;
48588;SDS011;34369;51.174;6.738;2022-07-29T06:00:25;18.52;;;16.73;;
48588;SDS011;34369;51.174;6.738;2022-07-29T06:03:00;17.17;;;15.60;;
48588;SDS011;34369;51.174;6.738;2022-07-29T06:05:33;17.13;;;15.38;;
48588;SDS011;34369;51.174;6.738;2022-07-29T06:08:08;17.02;;;15.52;;
48588;SDS011;34369;51.174;6.738;2022-07-29T06:10:41;18.35;;;16.65;;
48588;SDS011;34369;51.174;6.738;2022-07-29T06:13:15;17.45;;;15.85;;
48588;SDS011;34369;51.174;6.738;2022-07-29T06:15:48;16.60;;;15.07;;
48588;SDS011;34369;51.174;6.738;2022-07-29T06:18:21;17.67;;;15.93;;
48588;SDS011;34369;51.174;6.738;2022-07-29T06:20:54;16.92;;;15.43;;
48588;SDS011;34369;51.174;6.738;2022-07-29T06:23:30;17.23;;;15.55;;
48588;SDS011;34369;51.174;6.738;2022-07-29T06:26:02;18.35;;;16.55;;
48588;SDS011;34369;51.174;6.738;2022-07-29T06:28:35;18.02;;;16.10;;
48588;SDS011;34369;51.174;6.738;2022-07-29T06:31:07;18.83;;;16.73;;
48588;SDS011;34369;51.174;6.738;2022-07-29T06:33:40;17.70;;;16.10;;
48588;SDS011;34369;51.174;6.738;2022-07-29T06:36:12;18.08;;;16.42;;
48588;SDS011;34369;51.174;6.738;2022-07-29T06:38:47;17.75;;;16.15;;
48588;SDS011;34369;51.174;6.738;2022-07-29T06:41:19;16.95;;;15.40;;
48588;SDS011;34369;51.174;6.738;2022-07-29T06:43:53;17.90;;;16.13;;
48588;SDS011;34369;51.174;6.738;2022-07-29T06:46:25;17.70;;;16.00;;
48588;SDS011;34369;51.174;6.738;2022-07-29T06:48:57;18.15;;;16.45;;
48588;SDS011;34369;51.174;6.738;2022-07-29T06:51:31;17.23;;;15.73;;
48588;SDS011;34369;51.174;6.738;2022-07-29T06:54:05;17.98;;;16.38;;
48588;SDS011;34369;51.174;6.738;2022-07-29T06:56:39;17.55;;;15.85;;
48588;SDS011;34369;51.174;6.738;2022-07-29T06:59:14;18.08;;;16.17;;
48588;SDS011;34369;51.174;6.738;2022-07-29T07:01:46;17.13;;;15.57;;
48588;SDS011;34369;51.174;6.738;2022-07-29T07:04:19;17.25;;;15.55;;
48588;SDS011;34369;51.174;6.738;2022-07-29T07:06:51;17.67;;;15.98;;
48588;SDS011;34369;51.174;6.738;2022-07-29T07:09:27;17.80;;;16.10;;
48588;SDS011;34369;51.174;6.738;2022-07-29T07:11:59;17.35;;;15.65;;
48588;SDS011;34369;51.174;6.738;2022-07-29T07:14:32;17.17;;;15.68;;
48588;SDS011;34369;51.174;6.738;2022-07-29T07:17:04;17.02;;;15.45;;
48588;SDS011;34369;51.174;6.738;2022-07-29T07:19:37;17.70;;;15.98;;
48588;SDS011;34369;51.174;6.738;2022-07-29T07:22:10;17.33;;;15.55;;
48588;SDS011;34369;51.174;6.738;2022-07-29T07:24:44;17.63;;;15.65;;
48588;SDS011;34369;51.174;6.738;2022-07-29T07:27:18;16.98;;;15.45;;
48588;SDS011;34369;51.174;6.738;2022-07-29T07:29:52;18.60;;;16.73;;
48588;SDS011;34369;51.174;6.738;2022-07-29T07:32:24;17.95;;;16.15;;
48588;SDS011;34369;51.174;6.738;2022-07-29T07:34:57;18.50;;;16.80;;
48588;SDS011;34369;51.174;6.738;2022-07-29T07:37:29;18.15;;;16.45;;
48588;SDS011;34369;51.174;6.738;2022-07-29T07:40:04;18.17;;;16.48;;
48588;SDS011;34369;51.174;6.738;2022-07-29T07:42:38;17.55;;;15.85;;
48588;SDS011;34369;51.174;6.738;2022-07-29T07:45:12;17.55;;;15.95;;
48588;SDS011;34369;51.174;6.738;2022-07-29T07:47:45;18.30;;;16.50;;
48588;SDS011;34369;51.174;6.738;2022-07-29T07:50:18;17.48;;;15.90;;
48588;SDS011;34369;51.174;6.738;2022-07-29T07:52:51;17.20;;;15.60;;
48588;SDS011;34369;51.174;6.738;2022-07-29T07:58:01;20.02;;;16.73;;
48588;SDS011;34369;51.174;6.738;2022-07-29T08:00:33;17.38;;;15.68;;
48588;SDS011;34369;51.174;6.738;2022-07-29T08:03:06;18.70;;;16.90;;
48588;SDS011;34369;51.174;6.738;2022-07-29T08:05:38;17.77;;;15.82;;
48588;SDS011;34369;51.174;6.738;2022-07-29T08:08:12;18.10;;;16.25;;
48588;SDS011;34369;51.174;6.738;2022-07-29T08:10:47;19.42;;;17.02;;
48588;SDS011;34369;51.174;6.738;2022-07-29T08:13:27;18.27;;;16.50;;
48588;SDS011;34369;51.174;6.738;2022-07-29T08:16:00;19.10;;;17.17;;
48588;SDS011;34369;51.174;6.738;2022-07-29T08:18:42;20.27;;;16.27;;
48588;SDS011;34369;51.174;6.738;2022-07-29T08:21:17;19.38;;;16.60;;
48588;SDS011;34369;51.174;6.738;2022-07-29T08:23:50;17.63;;;15.82;;
48588;SDS011;34369;51.174;6.738;2022-07-29T08:26:45;18.58;;;16.67;;
48588;SDS011;34369;51.174;6.738;2022-07-29T08:29:17;18.40;;;16.38;;
48588;SDS011;34369;51.174;6.738;2022-07-29T08:31:50;17.05;;;15.45;;
48588;SDS011;34369;51.174;6.738;2022-07-29T08:34:23;16.88;;;15.30;;
48588;SDS011;34369;51.174;6.738;2022-07-29T08:36:57;16.70;;;15.20;;
48588;SDS011;34369;51.174;6.738;2022-07-29T08:39:30;17.30;;;15.60;;
48588;SDS011;34369;51.174;6.738;2022-07-29T08:42:04;17.55;;;15.68;;
48588;SDS011;34369;51.174;6.738;2022-07-29T08:44:37;16.90;;;15.20;;
48588;SDS011;34369;51.174;6.738;2022-07-29T08:47:13;20.52;;;15.73;;
48588;SDS011;34369;51.174;6.738;2022-07-29T08:49:46;17.23;;;15.52;;
48588;SDS011;34369;51.174;6.738;2022-07-29T08:52:20;17.95;;;16.25;;
48588;SDS011;34369;51.174;6.738;2022-07-29T08:57:30;17.33;;;15.73;;
48588;SDS011;34369;51.174;6.738;2022-07-29T09:00:05;17.38;;;15.65;;
48588;SDS011;34369;51.174;6.738;2022-07-29T09:02:41;17.30;;;15.52;;
48588;SDS011;34369;51.174;6.738;2022-07-29T09:05:21;16.95;;;15.25;;
48588;SDS011;34369;51.174;6.738;2022-07-29T09:07:55;17.80;;;15.07;;
48588;SDS011;34369;51.174;6.738;2022-07-29T09:10:28;16.38;;;14.65;;
48588;SDS011;34369;51.174;6.738;2022-07-29T09:13:02;16.65;;;14.95;;
48588;SDS011;34369;51.174;6.738;2022-07-29T09:15:35;15.98;;;14.38;;
48588;SDS011;34369;51.174;6.738;2022-07-29T09:18:07;16.20;;;14.60;;
48588;SDS011;34369;51.174;6.738;2022-07-29T09:20:40;16.63;;;15.07;;
48588;SDS011;34369;51.174;6.738;2022-07-29T09:23:41;16.58;;;14.73;;
48588;SDS011;34369;51.174;6.738;2022-07-29T09:26:33;15.70;;;14.30;;
48588;SDS011;34369;51.174;6.738;2022-07-29T09:29:09;16.73;;;15.10;;
48588;SDS011;34369;51.174;6.738;2022-07-29T09:31:44;16.85;;;15.25;;
48588;SDS011;34369;51.174;6.738;2022-07-29T09:34:23;15.73;;;14.20;;
48588;SDS011;34369;51.174;6.738;2022-07-29T09:36:58;16.60;;;14.85;;
48588;SDS011;34369;51.174;6.738;2022-07-29T09:39:31;15.93;;;14.40;;
48588;SDS011;34369;51.174;6.738;2022-07-29T09:42:06;16.25;;;14.55;;
48588;SDS011;34369;51.174;6.738;2022-07-29T09:44:44;16.92;;;14.65;;
48588;SDS011;34369;51.174;6.738;2022-07-29T09:47:19;16.38;;;14.68;;
48588;SDS011;34369;51.174;6.738;2022-07-29T09:49:56;15.60;;;14.00;;
48588;SDS011;34369;51.174;6.738;2022-07-29T09:52:30;15.90;;;14.30;;
48588;SDS011;34369;51.174;6.738;2022-07-29T09:55:06;16.48;;;14.88;;
48588;SDS011;34369;51.174;6.738;2022-07-29T09:57:40;15.88;;;14.32;;
48588;SDS011;34369;51.174;6.738;2022-07-29T10:00:16;16.77;;;15.07;;
48588;SDS011;34369;51.174;6.738;2022-07-29T10:02:55;16.60;;;14.68;;
48588;SDS011;34369;51.174;6.738;2022-07-29T10:05:32;16.50;;;14.60;;
48588;SDS011;34369;51.174;6.738;2022-07-29T10:08:05;16.60;;;14.75;;
48588;SDS011;34369;51.174;6.738;2022-07-29T10:10:39;15.75;;;14.15;;
48588;SDS011;34369;51.174;6.738;2022-07-29T10:13:13;15.98;;;14.48;;
48588;SDS011;34369;51.174;6.738;2022-07-29T10:15:47;16.15;;;14.45;;
48588;SDS011;34369;51.174;6.738;2022-07-29T10:18:21;16.10;;;14.57;;
48588;SDS011;34369;51.174;6.738;2022-07-29T10:20:53;15.82;;;14.00;;
48588;SDS011;34369;51.174;6.738;2022-07-29T10:23:27;15.25;;;13.75;;
48588;SDS011;34369;51.174;6.738;2022-07-29T10:26:01;14.95;;;13.35;;
48588;SDS011;34369;51.174;6.738;2022-07-29T10:28:34;14.93;;;13.35;;
48588;SDS011;34369;51.174;6.738;2022-07-29T10:31:10;15.02;;;13.38;;
48588;SDS011;34369;51.174;6.738;2022-07-29T10:33:57;15.43;;;13.82;;
48588;SDS011;34369;51.174;6.738;2022-07-29T10:36:43;15.20;;;13.80;;
48588;SDS011;34369;51.174;6.738;2022-07-29T10:39:30;14.73;;;13.25;;
48588;SDS011;34369;51.174;6.738;2022-07-29T10:42:14;15.30;;;13.80;;
48588;SDS011;34369;51.174;6.738;2022-07-29T10:44:50;15.07;;;13.25;;
48588;SDS011;34369;51.174;6.738;2022-07-29T10:47:27;14.35;;;12.95;;
48588;SDS011;34369;51.174;6.738;2022-07-29T10:50:00;14.68;;;13.23;;
48588;SDS011;34369;51.174;6.738;2022-07-29T10:55:31;14.32;;;12.75;;
48588;SDS011;34369;51.174;6.738;2022-07-29T10:58:10;14.75;;;13.25;;
48588;SDS011;34369;51.174;6.738;2022-07-29T11:00:49;14.10;;;12.70;;
48588;SDS011;34369;51.174;6.738;2022-07-29T11:06:21;14.32;;;12.82;;
48588;SDS011;34369;51.174;6.738;2022-07-29T11:11:48;14.20;;;12.70;;
48588;SDS011;34369;51.174;6.738;2022-07-29T11:17:38;13.70;;;12.30;;
48588;SDS011;34369;51.174;6.738;2022-07-29T11:20:40;16.13;;;12.90;;
48588;SDS011;34369;51.174;6.738;2022-07-29T11:23:23;14.45;;;12.85;;
48588;SDS011;34369;51.174;6.738;2022-07-29T11:26:12;14.68;;;13.13;;
48588;SDS011;34369;51.174;6.738;2022-07-29T11:28:54;16.20;;;12.95;;
48588;SDS011;34369;51.174;6.738;2022-07-29T11:31:37;13.77;;;12.05;;
48588;SDS011;34369;51.174;6.738;2022-07-29T11:34:16;14.00;;;11.65;;
48588;SDS011;34369;51.174;6.738;2022-07-29T11:42:54;13.93;;;11.65;;
48588;SDS011;34369;51.174;6.738;2022-07-29T11:45:26;12.43;;;11.10;;
48588;SDS011;34369;51.174;6.738;2022-07-29T11:48:18;13.25;;;10.88;;
48588;SDS011;34369;51.174;6.738;2022-07-29T11:50:51;14.07;;;11.18;;
48588;SDS011;34369;51.174;6.738;2022-07-29T11:53:25;16.30;;;11.93;;
48588;SDS011;34369;51.174;6.738;2022-07-29T11:55:59;19.55;;;12.30;;
48588;SDS011;34369;51.174;6.738;2022-07-29T11:58:33;13.75;;;11.55;;
48588;SDS011;34369;51.174;6.738;2022-07-29T12:01:07;17.50;;;12.32;;
48588;SDS011;34369;51.174;6.738;2022-07-29T12:03:45;16.65;;;11.98;;
48588;SDS011;34369;51.174;6.738;2022-07-29T12:06:17;13.35;;;11.95;;
48588;SDS011;34369;51.174;6.738;2022-07-29T12:08:51;15.45;;;11.93;;
48588;SDS011;34369;51.174;6.738;2022-07-29T12:11:25;17.60;;;12.07;;
48588;SDS011;34369;51.174;6.738;2022-07-29T12:13:58;14.25;;;12.10;;
48588;SDS011;34369;51.174;6.738;2022-07-29T12:16:34;22.77;;;13.00;;
48588;SDS011;34369;51.174;6.738;2022-07-29T12:19:09;15.45;;;12.40;;
48588;SDS011;34369;51.174;6.738;2022-07-29T12:21:44;15.73;;;12.03;;
48588;SDS011;34369;51.174;6.738;2022-07-29T12:24:20;16.33;;;12.27;;
48588;SDS011;34369;51.174;6.738;2022-07-29T12:26:54;19.40;;;13.02;;
48588;SDS011;34369;51.174;6.738;2022-07-29T12:29:29;17.42;;;12.68;;
48588;SDS011;34369;51.174;6.738;2022-07-29T12:32:03;16.10;;;12.50;;
48588;SDS011;34369;51.174;6.738;2022-07-29T12:34:37;14.18;;;12.38;;
48588;SDS011;34369;51.174;6.738;2022-07-29T12:37:11;18.75;;;12.63;;
48588;SDS011;34369;51.174;6.738;2022-07-29T12:39:45;15.27;;;12.00;;
48588;SDS011;34369;51.174;6.738;2022-07-29T12:42:17;14.77;;;12.07;;
48588;SDS011;34369;51.174;6.738;2022-07-29T12:44:50;15.00;;;12.10;;
48588;SDS011;34369;51.174;6.738;2022-07-29T12:47:23;13.63;;;11.85;;
48588;SDS011;34369;51.174;6.738;2022-07-29T12:50:07;15.13;;;12.00;;
48588;SDS011;34369;51.174;6.738;2022-07-29T12:52:42;16.13;;;12.90;;
48588;SDS011;34369;51.174;6.738;2022-07-29T12:58:25;14.85;;;12.55;;
48588;SDS011;34369;51.174;6.738;2022-07-29T13:01:04;18.30;;;13.55;;
48588;SDS011;34369;51.174;6.738;2022-07-29T13:03:44;16.77;;;12.75;;
48588;SDS011;34369;51.174;6.738;2022-07-29T13:09:17;15.68;;;12.45;;
48588;SDS011;34369;51.174;6.738;2022-07-29T13:11:53;16.83;;;12.85;;
48588;SDS011;34369;51.174;6.738;2022-07-29T13:14:29;15.52;;;12.45;;
48588;SDS011;34369;51.174;6.738;2022-07-29T13:17:04;19.45;;;12.60;;
48588;SDS011;34369;51.174;6.738;2022-07-29T13:19:39;16.45;;;12.20;;
48588;SDS011;34369;51.174;6.738;2022-07-29T13:22:16;15.15;;;12.65;;
48588;SDS011;34369;51.174;6.738;2022-07-29T13:24:51;13.98;;;12.20;;
48588;SDS011;34369;51.174;6.738;2022-07-29T13:27:26;15.90;;;11.98;;
48588;SDS011;34369;51.174;6.738;2022-07-29T13:30:00;13.00;;;11.65;;
48588;SDS011;34369;51.174;6.738;2022-07-29T13:32:36;15.77;;;11.77;;
48588;SDS011;34369;51.174;6.738;2022-07-29T13:35:08;13.25;;;11.75;;
48588;SDS011;34369;51.174;6.738;2022-07-29T13:37:41;14.50;;;12.00;;
48588;SDS011;34369;51.174;6.738;2022-07-29T13:40:13;13.52;;;11.73;;
48588;SDS011;34369;51.174;6.738;2022-07-29T13:42:48;17.20;;;12.50;;
48588;SDS011;34369;51.174;6.738;2022-07-29T13:45:20;17.63;;;11.70;;
48588;SDS011;34369;51.174;6.738;2022-07-29T13:47:52;14.82;;;11.95;;
48588;SDS011;34369;51.174;6.738;2022-07-29T13:50:24;19.73;;;12.20;;
48588;SDS011;34369;51.174;6.738;2022-07-29T13:52:56;15.32;;;11.88;;
48588;SDS011;34369;51.174;6.738;2022-07-29T13:55:28;13.82;;;11.55;;
48588;SDS011;34369;51.174;6.738;2022-07-29T13:58:02;13.02;;;11.68;;
48588;SDS011;34369;51.174;6.738;2022-07-29T14:00:34;12.73;;;11.40;;
48588;SDS011;34369;51.174;6.738;2022-07-29T14:03:06;13.20;;;11.80;;
48588;SDS011;34369;51.174;6.738;2022-07-29T14:05:38;13.73;;;11.77;;
48588;SDS011;34369;51.174;6.738;2022-07-29T14:08:10;13.77;;;11.50;;
48588;SDS011;34369;51.174;6.738;2022-07-29T14:10:44;13.07;;;11.40;;
48588;SDS011;34369;51.174;6.738;2022-07-29T14:13:17;14.25;;;11.38;;
48588;SDS011;34369;51.174;6.738;2022-07-29T14:15:49;12.68;;;11.38;;
48588;SDS011;34369;51.174;6.738;2022-07-29T14:18:21;13.07;;;11.68;;
48588;SDS011;34369;51.174;6.738;2022-07-29T14:20:53;13.30;;;11.90;;
48588;SDS011;34369;51.174;6.738;2022-07-29T14:23:24;13.35;;;11.68;;
48588;SDS011;34369;51.174;6.738;2022-07-29T14:25:56;15.43;;;11.60;;
48588;SDS011;34369;51.174;6.738;2022-07-29T14:28:30;12.63;;;11.23;;
48588;SDS011;34369;51.174;6.738;2022-07-29T14:31:02;13.77;;;11.98;;
48588;SDS011;34369;51.174;6.738;2022-07-29T14:33:34;12.70;;;11.07;;
48588;SDS011;34369;51.174;6.738;2022-07-29T14:36:06;12.45;;;10.75;;
48588;SDS011;34369;51.174;6.738;2022-07-29T14:38:37;12.30;;;11.05;;
48588;SDS011;34369;51.174;6.738;2022-07-29T14:41:11;15.50;;;11.70;;
48588;SDS011;34369;51.174;6.738;2022-07-29T14:43:45;15.02;;;11.27;;
48588;SDS011;34369;51.174;6.738;2022-07-29T14:46:17;12.50;;;11.20;;
48588;SDS011;34369;51.174;6.738;2022-07-29T14:48:49;14.90;;;10.90;;
48588;SDS011;34369;51.174;6.738;2022-07-29T14:51:21;13.52;;;11.38;;
48588;SDS011;34369;51.174;6.738;2022-07-29T14:53:53;12.20;;;11.00;;
48588;SDS011;34369;51.174;6.738;2022-07-29T14:56:26;12.27;;;10.90;;
48588;SDS011;34369;51.174;6.738;2022-07-29T14:59:01;14.50;;;11.38;;
48588;SDS011;34369;51.174;6.738;2022-07-29T15:01:35;15.18;;;11.18;;
48588;SDS011;34369;51.174;6.738;2022-07-29T15:04:07;14.52;;;11.15;;
48588;SDS011;34369;51.174;6.738;2022-07-29T15:06:39;13.00;;;11.50;;
48588;SDS011;34369;51.174;6.738;2022-07-29T15:09:11;12.85;;;10.95;;
48588;SDS011;34369;51.174;6.738;2022-07-29T15:11:43;17.65;;;11.00;;
48588;SDS011;34369;51.174;6.738;2022-07-29T15:14:16;12.27;;;10.98;;
48588;SDS011;34369;51.174;6.738;2022-07-29T15:16:48;12.30;;;11.10;;
48588;SDS011;34369;51.174;6.738;2022-07-29T15:19:20;12.15;;;10.85;;
48588;SDS011;34369;51.174;6.738;2022-07-29T15:21:52;12.65;;;11.18;;
48588;SDS011;34369;51.174;6.738;2022-07-29T15:24:27;12.68;;;11.38;;
48588;SDS011;34369;51.174;6.738;2022-07-29T15:26:59;12.23;;;10.95;;
48588;SDS011;34369;51.174;6.738;2022-07-29T15:29:32;14.52;;;10.93;;
48588;SDS011;34369;51.174;6.738;2022-07-29T15:32:04;13.98;;;11.82;;
48588;SDS011;34369;51.174;6.738;2022-07-29T15:34:37;12.88;;;11.02;;
48588;SDS011;34369;51.174;6.738;2022-07-29T15:37:09;12.75;;;11.45;;
48588;SDS011;34369;51.174;6.738;2022-07-29T15:39:41;13.93;;;11.20;;
48588;SDS011;34369;51.174;6.738;2022-07-29T15:42:13;12.35;;;11.05;;
48588;SDS011;34369;51.174;6.738;2022-07-29T15:44:46;12.80;;;11.40;;
48588;SDS011;34369;51.174;6.738;2022-07-29T15:47:18;14.50;;;11.30;;